createdAt,value
2022-12-15T00:01:58.209Z,15.30
2022-12-15T00:04:20.545Z,15.40
2022-12-15T00:06:43.747Z,15.40
2022-12-15T00:09:09.789Z,15.40
2022-12-15T00:11:36.723Z,15.40
2022-12-15T00:13:59.671Z,15.50
2022-12-15T00:16:22.928Z,15.50
2022-12-15T00:18:48.595Z,15.60
2022-12-15T00:21:11.135Z,15.70
2022-12-15T00:23:34.215Z,15.70
2022-12-15T00:25:56.682Z,15.80
2022-12-15T00:28:19.579Z,15.90
2022-12-15T00:30:41.920Z,15.90
2022-12-15T00:33:04.662Z,16.00
2022-12-15T00:35:29.061Z,16.00
2022-12-15T00:37:52.053Z,16.10
2022-12-15T00:40:01.329Z,16.10
2022-12-15T00:42:07.795Z,16.20
2022-12-15T00:44:18.954Z,16.20
2022-12-15T00:46:43.216Z,16.30
2022-12-15T00:48:49.718Z,16.30
2022-12-15T00:50:56.437Z,16.40
2022-12-15T00:53:19.598Z,16.40
2022-12-15T00:55:42.140Z,16.50
2022-12-15T00:58:04.989Z,16.50
2022-12-15T01:00:28.449Z,16.60
2022-12-15T01:02:51.480Z,16.60
2022-12-15T01:05:14.144Z,16.70
2022-12-15T01:07:39.043Z,16.80
2022-12-15T01:10:01.636Z,16.80
2022-12-15T01:12:24.586Z,16.90
2022-12-15T01:14:47.281Z,17.00
2022-12-15T01:17:09.926Z,17.10
2022-12-15T01:19:32.416Z,17.20
2022-12-15T01:21:38.931Z,17.20
2022-12-15T01:23:46.676Z,17.30
2022-12-15T01:25:53.958Z,17.40
2022-12-15T01:27:59.966Z,17.50
2022-12-15T01:30:07.759Z,17.50
2022-12-15T01:32:13.858Z,17.60
2022-12-15T01:34:21.097Z,17.60
2022-12-15T01:43:44.198Z,18.30
2022-12-15T01:45:58.190Z,18.60
2022-12-15T01:49:43.112Z,18.80
2022-12-15T01:53:27.706Z,19.00
2022-12-15T01:55:36.445Z,19.10
2022-12-15T01:57:43.785Z,19.10
2022-12-15T01:59:54.496Z,19.00
2022-12-15T02:02:01.545Z,18.90
2022-12-15T02:04:09.321Z,18.90
2022-12-15T02:06:17.423Z,18.90
2022-12-15T02:08:26.650Z,19.00
2022-12-15T02:10:58.151Z,19.00
2022-12-15T02:13:14.808Z,19.10
2022-12-15T02:15:29.209Z,19.20
2022-12-15T02:17:44.343Z,19.30
2022-12-15T02:20:27.143Z,19.40
2022-12-15T02:22:49.837Z,19.40
2022-12-15T02:25:12.789Z,19.50
2022-12-15T02:27:51.354Z,19.60
2022-12-15T02:30:29.053Z,19.80
2022-12-15T02:32:41.355Z,19.90
2022-12-15T02:34:54.017Z,20.00
2022-12-15T02:37:04.881Z,20.10
2022-12-15T02:39:14.418Z,20.20
2022-12-15T02:41:40.342Z,20.30
2022-12-15T02:43:47.263Z,20.40
2022-12-15T02:46:09.675Z,20.50
2022-12-15T02:48:30.709Z,20.50
2022-12-15T02:50:56.631Z,20.70
2022-12-15T02:53:14.717Z,20.70
2022-12-15T02:55:30.039Z,20.80
2022-12-15T02:57:45.056Z,20.80
2022-12-15T03:00:00.080Z,20.90
2022-12-15T03:02:10.628Z,20.90
2022-12-15T03:04:18.992Z,21.00
2022-12-15T03:06:27.708Z,21.10
2022-12-15T03:08:35.199Z,21.10
2022-12-15T03:10:42.223Z,21.30
2022-12-15T03:12:49.253Z,21.40
2022-12-15T03:14:56.537Z,21.40
2022-12-15T03:17:03.464Z,21.60
2022-12-15T03:19:12.649Z,21.70
2022-12-15T03:21:19.771Z,21.80
2022-12-15T03:23:27.236Z,21.90
2022-12-15T03:25:34.392Z,21.90
2022-12-15T03:27:41.674Z,21.90
2022-12-15T03:29:48.600Z,21.90
2022-12-15T03:31:56.023Z,21.90
2022-12-15T03:34:03.167Z,22.00
2022-12-15T03:36:13.167Z,22.10
2022-12-15T03:38:20.095Z,22.20
2022-12-15T03:40:27.323Z,22.30
2022-12-15T03:42:52.270Z,22.40
2022-12-15T03:44:59.860Z,22.40
2022-12-15T03:47:07.094Z,22.60
2022-12-15T03:49:14.273Z,22.60
2022-12-15T03:51:22.995Z,22.70
2022-12-15T03:53:30.696Z,22.80
2022-12-15T03:55:37.923Z,22.80
2022-12-15T03:57:45.155Z,22.80
2022-12-15T03:59:52.232Z,23.00
2022-12-15T04:01:59.753Z,23.00
2022-12-15T04:04:07.208Z,23.10
2022-12-15T04:06:14.337Z,23.30
2022-12-15T04:08:27.717Z,23.40
2022-12-15T04:10:36.338Z,23.50
2022-12-15T04:12:43.356Z,23.60
2022-12-15T04:14:50.337Z,23.60
2022-12-15T04:16:57.344Z,23.70
2022-12-15T04:19:20.469Z,23.70
2022-12-15T04:21:27.600Z,23.70
2022-12-15T04:23:36.317Z,23.80
2022-12-15T04:25:59.721Z,23.80
2022-12-15T04:28:23.244Z,23.80
2022-12-15T04:30:46.866Z,23.90
2022-12-15T04:33:10.580Z,24.00
2022-12-15T04:35:34.657Z,24.10
2022-12-15T04:37:58.529Z,24.20
2022-12-15T04:40:25.017Z,24.30
2022-12-15T04:42:49.806Z,24.40
2022-12-15T04:45:20.595Z,24.50
2022-12-15T04:47:44.617Z,24.50
2022-12-15T04:50:08.187Z,24.50
2022-12-15T04:52:32.929Z,24.60
2022-12-15T04:54:56.598Z,24.70
2022-12-15T04:57:22.209Z,24.50
2022-12-15T04:59:45.829Z,24.60
2022-12-15T05:02:09.976Z,24.60
2022-12-15T05:04:33.651Z,24.70
2022-12-15T05:06:57.239Z,24.80
2022-12-15T05:09:20.701Z,24.90
2022-12-15T05:11:44.218Z,25.00
2022-12-15T05:14:09.574Z,25.00
2022-12-15T05:16:33.509Z,25.10
2022-12-15T05:18:56.915Z,25.10
2022-12-15T05:21:21.039Z,25.20
2022-12-15T05:23:44.603Z,25.20
2022-12-15T05:26:08.429Z,25.30
2022-12-15T05:28:31.330Z,25.30
2022-12-15T05:30:56.593Z,25.40
2022-12-15T05:33:08.372Z,25.40
2022-12-15T05:35:15.656Z,25.50
2022-12-15T05:37:22.633Z,25.50
2022-12-15T05:39:29.914Z,25.50
2022-12-15T05:41:36.843Z,25.60
2022-12-15T05:43:44.074Z,25.70
2022-12-15T05:45:52.928Z,25.70
2022-12-15T05:48:00.538Z,25.70
2022-12-15T05:50:07.718Z,25.70
2022-12-15T05:52:14.950Z,25.60
2022-12-15T05:54:22.908Z,25.50
2022-12-15T05:56:31.723Z,25.50
2022-12-15T05:58:44.607Z,25.50
2022-12-15T06:00:54.278Z,25.60
2022-12-15T06:03:02.285Z,25.70
2022-12-15T06:05:10.713Z,25.80
2022-12-15T06:07:17.662Z,25.80
2022-12-15T06:09:24.951Z,25.90
2022-12-15T06:11:32.332Z,25.90
2022-12-15T06:13:39.515Z,26.00
2022-12-15T06:15:46.451Z,26.00
2022-12-15T06:17:56.898Z,26.10
2022-12-15T06:20:03.877Z,26.10
2022-12-15T06:22:11.567Z,26.10
2022-12-15T06:24:18.955Z,26.20
2022-12-15T06:26:27.518Z,26.20
2022-12-15T06:28:34.802Z,26.20
2022-12-15T06:30:41.677Z,26.20
2022-12-15T06:32:50.013Z,26.10
2022-12-15T06:34:58.806Z,26.10
2022-12-15T06:37:06.091Z,26.10
2022-12-15T06:39:16.137Z,26.10
2022-12-15T06:41:24.855Z,26.10
2022-12-15T06:43:32.224Z,26.10
2022-12-15T06:45:39.628Z,26.20
2022-12-15T06:47:46.810Z,26.20
2022-12-15T06:49:53.889Z,26.20
2022-12-15T06:52:02.606Z,26.20
2022-12-15T06:54:09.943Z,26.20
2022-12-15T06:56:22.455Z,26.30
2022-12-15T06:58:32.906Z,26.30
2022-12-15T07:00:40.397Z,26.30
2022-12-15T07:02:49.997Z,26.30
2022-12-15T07:04:57.625Z,26.30
2022-12-15T07:07:06.550Z,26.30
2022-12-15T07:09:19.515Z,26.40
2022-12-15T07:11:27.261Z,26.40
2022-12-15T07:13:34.473Z,26.40
2022-12-15T07:15:42.644Z,26.50
2022-12-15T07:17:49.676Z,26.50
2022-12-15T07:19:57.061Z,26.50
2022-12-15T07:22:05.984Z,26.50
2022-12-15T07:24:15.214Z,26.50
2022-12-15T07:26:22.206Z,26.50
2022-12-15T07:28:29.716Z,26.50
2022-12-15T07:30:39.090Z,26.60
2022-12-15T07:32:50.328Z,26.60
2022-12-15T07:34:57.573Z,26.60
2022-12-15T07:37:06.599Z,26.60
2022-12-15T07:39:13.574Z,26.60
2022-12-15T07:41:21.260Z,26.50
2022-12-15T07:43:28.485Z,26.50
2022-12-15T07:45:35.973Z,26.50
2022-12-15T07:47:43.222Z,26.50
2022-12-15T07:49:50.560Z,26.40
2022-12-15T07:52:00.298Z,26.30
2022-12-15T07:54:09.431Z,26.30
2022-12-15T07:56:16.407Z,26.30
2022-12-15T07:58:23.688Z,26.30
2022-12-15T08:00:30.921Z,26.40
2022-12-15T08:02:38.262Z,26.40
2022-12-15T08:04:45.335Z,26.40
2022-12-15T08:06:52.516Z,26.40
2022-12-15T08:08:59.853Z,26.40
2022-12-15T08:11:10.825Z,26.40
2022-12-15T08:14:00.236Z,26.30
2022-12-15T08:15:45.616Z,26.30
2022-12-15T08:17:52.700Z,26.30
2022-12-15T08:20:03.432Z,26.30
2022-12-15T08:22:16.069Z,26.30
2022-12-15T08:24:24.173Z,26.20
2022-12-15T08:26:32.940Z,26.20
2022-12-15T08:28:41.094Z,26.20
2022-12-15T08:30:48.020Z,26.20
2022-12-15T08:32:55.151Z,26.20
2022-12-15T08:35:02.075Z,26.20
2022-12-15T08:37:09.515Z,26.10
2022-12-15T08:39:16.393Z,26.10
2022-12-15T08:41:25.668Z,26.10
2022-12-15T08:43:34.653Z,26.00
2022-12-15T08:45:45.010Z,26.00
2022-12-15T08:47:52.078Z,26.00
2022-12-15T08:49:59.367Z,26.00
2022-12-15T08:52:06.338Z,26.00
2022-12-15T08:54:13.623Z,26.00
2022-12-15T08:56:23.265Z,26.00
2022-12-15T08:58:30.347Z,26.00
2022-12-15T09:00:39.009Z,26.00
2022-12-15T09:02:46.811Z,26.00
2022-12-15T09:04:53.914Z,26.00
2022-12-15T09:07:01.320Z,26.00
2022-12-15T09:09:10.555Z,26.00
2022-12-15T09:11:18.022Z,25.90
2022-12-15T09:13:25.118Z,25.90
2022-12-15T09:16:00.197Z,25.80
2022-12-15T09:18:01.099Z,25.80
2022-12-15T09:20:10.915Z,25.80
2022-12-15T09:22:20.316Z,25.70
2022-12-15T09:24:34.594Z,25.70
2022-12-15T09:26:43.743Z,25.60
2022-12-15T09:28:51.093Z,25.60
2022-12-15T09:30:58.500Z,25.60
2022-12-15T09:33:07.180Z,25.60
2022-12-15T09:35:14.618Z,25.60
2022-12-15T09:37:21.633Z,25.50
2022-12-15T09:39:28.985Z,25.50
2022-12-15T09:41:37.750Z,25.40
2022-12-15T09:43:50.973Z,25.40
2022-12-15T09:46:05.740Z,25.30
2022-12-15T09:48:21.209Z,25.30
2022-12-15T09:50:33.255Z,25.30
2022-12-15T09:52:50.112Z,25.20
2022-12-15T09:54:57.498Z,25.20
2022-12-15T09:57:10.877Z,25.10
2022-12-15T09:59:28.452Z,25.10
2022-12-15T10:01:41.971Z,25.10
2022-12-15T10:03:59.344Z,25.10
2022-12-15T10:06:16.460Z,25.10
2022-12-15T10:08:26.312Z,25.00
2022-12-15T10:10:37.997Z,25.00
2022-12-15T10:12:57.807Z,24.90
2022-12-15T10:15:20.060Z,24.90
2022-12-15T10:17:28.939Z,24.80
2022-12-15T10:19:43.385Z,24.80
2022-12-15T10:21:51.437Z,24.70
2022-12-15T10:24:04.730Z,24.70
2022-12-15T10:26:23.924Z,24.60
2022-12-15T10:28:55.426Z,24.50
2022-12-15T10:31:05.965Z,24.40
2022-12-15T10:33:22.027Z,24.30
2022-12-15T10:35:34.182Z,24.20
2022-12-15T10:37:40.234Z,24.10
2022-12-15T10:39:50.323Z,24.00
2022-12-15T10:42:16.199Z,23.90
2022-12-15T10:44:32.247Z,23.90
2022-12-15T10:46:39.527Z,23.80
2022-12-15T10:51:24.914Z,23.60
2022-12-15T10:53:44.587Z,23.50
2022-12-15T10:56:04.007Z,23.50
2022-12-15T10:58:21.841Z,23.40
2022-12-15T11:00:31.373Z,23.40
2022-12-15T11:02:40.235Z,23.30
2022-12-15T11:04:59.253Z,23.20
2022-12-15T11:07:17.085Z,23.20
2022-12-15T11:09:31.949Z,23.10
2022-12-15T11:12:05.927Z,23.00
2022-12-15T11:14:17.953Z,23.00
2022-12-15T11:16:24.982Z,22.90
2022-12-15T11:18:42.144Z,22.90
2022-12-15T11:20:57.165Z,22.90
2022-12-15T11:23:10.538Z,22.80
2022-12-15T11:25:26.833Z,22.70
2022-12-15T11:27:38.418Z,22.70
2022-12-15T11:29:58.248Z,22.60
2022-12-15T11:32:07.533Z,22.50
2022-12-15T11:34:18.500Z,22.40
2022-12-15T11:36:39.094Z,22.30
2022-12-15T11:38:53.235Z,22.20
2022-12-15T11:41:04.104Z,22.10
2022-12-15T11:43:43.034Z,22.00
2022-12-15T11:46:01.477Z,22.00
2022-12-15T11:48:18.338Z,21.90
2022-12-15T11:50:33.965Z,22.00
2022-12-15T11:53:01.784Z,22.00
2022-12-15T11:55:27.671Z,22.00
2022-12-15T11:57:55.107Z,21.90
2022-12-15T12:00:09.010Z,21.90
2022-12-15T12:02:44.227Z,21.80
2022-12-15T12:05:04.002Z,21.80
2022-12-15T12:07:19.283Z,21.80
2022-12-15T12:09:33.837Z,21.80
2022-12-15T12:11:48.949Z,21.80
2022-12-15T12:14:13.186Z,21.80
2022-12-15T12:16:35.246Z,21.70
2022-12-15T12:18:50.640Z,21.70
2022-12-15T12:21:03.901Z,21.70
2022-12-15T12:23:18.425Z,21.60
2022-12-15T12:25:28.570Z,21.50
2022-12-15T12:27:43.174Z,21.50
2022-12-15T12:29:54.195Z,21.50
2022-12-15T12:32:06.089Z,21.40
2022-12-15T12:34:19.158Z,21.40
2022-12-15T12:36:26.391Z,21.30
2022-12-15T12:38:40.024Z,21.30
2022-12-15T12:40:56.779Z,21.30
2022-12-15T12:43:11.880Z,21.30
2022-12-15T12:45:22.511Z,21.30
2022-12-15T12:47:33.280Z,21.10
2022-12-15T12:49:45.321Z,21.00
2022-12-15T12:51:59.774Z,20.90
2022-12-15T12:54:13.831Z,20.90
2022-12-15T12:56:42.297Z,20.90
2022-12-15T12:58:51.424Z,20.90
2022-12-15T13:01:19.333Z,20.90
2022-12-15T13:03:27.142Z,20.90
2022-12-15T13:05:36.677Z,20.90
2022-12-15T13:07:44.579Z,20.90
2022-12-15T13:10:06.294Z,20.80
2022-12-15T13:12:52.950Z,20.90
2022-12-15T13:15:03.870Z,20.90
2022-12-15T13:20:27.764Z,20.80
2022-12-15T13:22:37.556Z,20.70
2022-12-15T13:24:50.693Z,20.70
2022-12-15T13:27:08.766Z,20.70
2022-12-15T13:29:20.299Z,20.70
2022-12-15T13:31:43.165Z,20.60
2022-12-15T13:33:58.629Z,20.60
2022-12-15T13:36:06.217Z,20.60
2022-12-15T13:38:21.282Z,20.60
2022-12-15T13:40:38.398Z,20.60
2022-12-15T13:42:56.247Z,20.50
2022-12-15T13:45:40.915Z,20.50
2022-12-15T13:47:57.440Z,20.50
2022-12-15T13:50:10.457Z,20.50
2022-12-15T13:53:08.573Z,20.50
2022-12-15T13:55:00.353Z,20.50
2022-12-15T13:57:10.162Z,20.40
2022-12-15T13:59:38.934Z,20.30
2022-12-15T14:01:53.166Z,20.30
2022-12-15T14:04:09.937Z,20.30
2022-12-15T14:06:19.013Z,20.20
2022-12-15T14:08:27.638Z,20.20
2022-12-15T14:10:45.309Z,20.10
2022-12-15T14:12:58.530Z,20.20
2022-12-15T14:15:07.504Z,20.10
2022-12-15T14:17:20.369Z,20.10
2022-12-15T14:19:36.610Z,20.10
2022-12-15T14:21:52.912Z,20.00
2022-12-15T14:24:37.035Z,20.00
2022-12-15T14:26:32.719Z,20.00
2022-12-15T14:28:41.640Z,20.00
2022-12-15T14:30:50.236Z,20.00
2022-12-15T14:33:02.405Z,19.90
2022-12-15T14:35:17.628Z,19.90
2022-12-15T14:37:25.369Z,19.90
2022-12-15T14:39:37.569Z,19.90
2022-12-15T14:41:49.882Z,19.90
2022-12-15T14:44:36.559Z,19.90
2022-12-15T14:46:30.427Z,19.90
2022-12-15T14:48:42.013Z,19.70
2022-12-15T14:51:13.788Z,19.70
2022-12-15T14:53:23.530Z,19.50
2022-12-15T14:55:38.033Z,19.50
2022-12-15T14:57:48.135Z,19.40
2022-12-15T14:59:56.086Z,19.50
2022-12-15T15:02:14.543Z,19.50
2022-12-15T15:03:05.364Z,20.80
2022-12-15T15:03:06.721Z,23.70
2022-12-15T15:04:30.260Z,19.60
2022-12-15T15:06:40.776Z,19.60
2022-12-15T15:08:52.510Z,19.60
2022-12-15T15:11:02.252Z,19.60
2022-12-15T15:13:09.738Z,19.60
2022-12-15T15:15:20.775Z,19.60
2022-12-15T15:17:31.782Z,19.50
2022-12-15T15:19:42.038Z,19.40
2022-12-15T15:21:51.575Z,19.30
2022-12-15T15:24:07.048Z,19.30
2022-12-15T15:26:19.658Z,19.30
2022-12-15T15:28:29.164Z,19.20
2022-12-15T15:30:48.293Z,19.10
2022-12-15T15:32:58.507Z,19.10
2022-12-15T15:35:05.845Z,19.10
2022-12-15T15:37:20.400Z,19.20
2022-12-15T15:39:27.784Z,19.20
2022-12-15T15:41:35.942Z,19.30
2022-12-15T15:43:43.303Z,19.30
2022-12-15T15:45:51.300Z,19.20
2022-12-15T15:47:58.866Z,19.10
2022-12-15T15:50:06.152Z,19.00
2022-12-15T15:52:16.556Z,18.90
2022-12-15T15:54:28.294Z,18.90
2022-12-15T15:56:36.039Z,18.90
2022-12-15T15:58:43.990Z,18.90
2022-12-15T16:00:50.965Z,18.90
2022-12-15T16:02:58.277Z,18.90
2022-12-15T16:05:05.842Z,18.90
2022-12-15T16:07:23.415Z,18.90
2022-12-15T16:09:30.398Z,18.90
2022-12-15T16:11:39.010Z,19.00
2022-12-15T16:13:46.191Z,18.90
2022-12-15T16:15:53.799Z,18.90
2022-12-15T16:18:01.375Z,18.90
2022-12-15T16:20:09.731Z,19.00
2022-12-15T16:22:22.190Z,19.00
2022-12-15T16:24:29.318Z,19.10
2022-12-15T16:26:38.241Z,19.10
2022-12-15T16:28:45.780Z,19.10
2022-12-15T16:30:53.290Z,19.10
2022-12-15T16:33:00.707Z,19.10
2022-12-15T16:35:08.969Z,19.10
2022-12-15T16:37:28.587Z,19.10
2022-12-15T16:39:36.945Z,19.10
2022-12-15T16:41:44.179Z,19.00
2022-12-15T16:43:51.104Z,18.90
2022-12-15T16:45:58.926Z,18.80
2022-12-15T16:48:05.942Z,18.70
2022-12-15T16:50:17.667Z,18.60
2022-12-15T16:52:26.434Z,18.50
2022-12-15T16:54:35.203Z,18.50
2022-12-15T16:56:43.618Z,18.50
2022-12-15T16:58:57.463Z,18.60
2022-12-15T17:01:16.928Z,18.60
2022-12-15T17:03:27.741Z,18.70
2022-12-15T17:05:36.508Z,18.70
2022-12-15T17:07:45.940Z,18.70
2022-12-15T17:09:53.792Z,18.70
2022-12-15T17:12:03.324Z,18.70
2022-12-15T17:14:12.401Z,18.60
2022-12-15T17:16:20.270Z,18.60
2022-12-15T17:18:27.378Z,18.60
2022-12-15T17:20:35.226Z,18.60
2022-12-15T17:22:43.993Z,18.60
2022-12-15T17:24:53.074Z,18.60
2022-12-15T17:27:00.140Z,18.50
2022-12-15T17:29:17.509Z,18.40
2022-12-15T17:31:30.314Z,18.30
2022-12-15T17:33:41.865Z,18.20
2022-12-15T17:35:49.714Z,18.20
2022-12-15T17:38:00.787Z,18.20
2022-12-15T17:40:17.282Z,18.20
2022-12-15T17:42:24.985Z,18.10
2022-12-15T17:44:35.020Z,18.00
2022-12-15T17:46:43.642Z,18.00
2022-12-15T17:48:51.240Z,17.90
2022-12-15T17:50:58.453Z,17.90
2022-12-15T17:53:08.312Z,18.00
2022-12-15T17:55:30.349Z,18.00
2022-12-15T17:57:41.827Z,18.00
2022-12-15T17:59:49.158Z,18.00
2022-12-15T18:01:57.945Z,18.10
2022-12-15T18:04:05.298Z,18.10
2022-12-15T18:06:17.448Z,18.10
2022-12-15T18:08:27.654Z,18.20
2022-12-15T18:10:37.561Z,18.20
2022-12-15T18:12:44.843Z,18.10
2022-12-15T18:14:52.136Z,18.00
2022-12-15T18:16:59.154Z,18.00
2022-12-15T18:19:06.116Z,18.00
2022-12-15T18:21:17.462Z,18.00
2022-12-15T18:23:27.203Z,17.90
2022-12-15T18:25:34.380Z,17.90
2022-12-15T18:27:41.631Z,17.80
2022-12-15T18:29:48.747Z,17.80
2022-12-15T18:31:55.653Z,17.70
2022-12-15T18:34:05.053Z,17.70
2022-12-15T18:36:13.351Z,17.60
2022-12-15T18:38:21.622Z,17.60
2022-12-15T18:40:32.949Z,17.60
2022-12-15T18:42:40.539Z,17.50
2022-12-15T18:44:51.728Z,17.50
2022-12-15T18:46:58.685Z,17.60
2022-12-15T18:49:05.616Z,17.60
2022-12-15T18:51:19.594Z,17.60
2022-12-15T18:53:30.161Z,17.60
2022-12-15T18:55:39.143Z,17.60
2022-12-15T18:57:46.682Z,17.60
2022-12-15T18:59:53.609Z,17.60
2022-12-15T19:02:01.278Z,17.70
2022-12-15T19:04:09.152Z,17.70
2022-12-15T19:06:26.312Z,17.80
2022-12-15T19:08:37.130Z,17.70
2022-12-15T19:10:52.350Z,17.70
2022-12-15T19:13:00.147Z,17.70
2022-12-15T19:15:09.993Z,17.70
2022-12-15T19:17:34.990Z,17.60
2022-12-15T19:20:01.268Z,17.60
2022-12-15T19:22:33.008Z,17.50
2022-12-15T19:24:58.078Z,17.60
2022-12-15T19:27:12.069Z,17.60
2022-12-15T19:29:22.374Z,17.50
2022-12-15T19:31:29.611Z,17.50
2022-12-15T19:33:36.585Z,17.40
2022-12-15T19:35:45.965Z,17.40
2022-12-15T19:37:56.023Z,17.30
2022-12-15T19:40:04.222Z,17.30
2022-12-15T19:42:22.513Z,17.20
2022-12-15T19:44:29.846Z,17.20
2022-12-15T19:46:36.771Z,17.30
2022-12-15T19:48:44.414Z,17.30
2022-12-15T19:50:54.903Z,17.30
2022-12-15T19:53:03.999Z,17.30
2022-12-15T19:55:16.508Z,17.30
2022-12-15T19:57:25.792Z,17.20
2022-12-15T19:59:32.764Z,17.20
2022-12-15T20:01:40.346Z,17.30
2022-12-15T20:03:48.292Z,17.30
2022-12-15T20:05:57.229Z,17.40
2022-12-15T20:08:04.204Z,17.40
2022-12-15T20:10:24.436Z,17.40
2022-12-15T20:12:36.691Z,17.40
2022-12-15T20:14:43.925Z,17.30
2022-12-15T20:16:51.327Z,17.20
2022-12-15T20:18:59.316Z,17.20
2022-12-15T20:21:06.390Z,17.20
2022-12-15T20:23:18.540Z,17.30
2022-12-15T20:25:29.203Z,17.30
2022-12-15T20:27:38.278Z,17.30
2022-12-15T20:29:45.253Z,17.40
2022-12-15T20:31:52.657Z,17.30
2022-12-15T20:33:59.617Z,17.40
2022-12-15T20:36:07.311Z,17.40
2022-12-15T20:38:28.879Z,17.30
2022-12-15T20:40:36.061Z,17.20
2022-12-15T20:42:44.783Z,17.10
2022-12-15T20:44:52.163Z,17.00
2022-12-15T20:47:01.445Z,17.00
2022-12-15T20:49:16.768Z,17.00
2022-12-15T20:51:27.243Z,17.10
2022-12-15T20:53:34.763Z,17.10
2022-12-15T20:55:41.999Z,17.10
2022-12-15T20:57:51.125Z,17.10
2022-12-15T20:59:58.358Z,17.10
2022-12-15T21:02:06.341Z,17.10
2022-12-15T21:04:27.057Z,17.10
2022-12-15T21:06:34.599Z,17.10
2022-12-15T21:08:41.627Z,17.10
2022-12-15T21:10:49.676Z,17.10
2022-12-15T21:12:58.548Z,17.10
2022-12-15T21:15:06.040Z,17.10
2022-12-15T21:17:17.039Z,17.00
2022-12-15T21:19:24.750Z,17.00
2022-12-15T21:21:33.367Z,16.90
2022-12-15T21:23:42.959Z,16.90
2022-12-15T21:25:50.434Z,17.00
2022-12-15T21:28:00.402Z,17.00
2022-12-15T21:30:16.635Z,17.10
2022-12-15T21:32:24.125Z,17.10
2022-12-15T21:34:31.049Z,17.20
2022-12-15T21:36:38.588Z,17.20
2022-12-15T21:38:47.458Z,17.20
2022-12-15T21:40:59.265Z,17.20
2022-12-15T21:43:08.325Z,17.20
2022-12-15T21:45:20.729Z,17.20
2022-12-15T21:47:49.363Z,17.20
2022-12-15T21:49:55.244Z,17.20
2022-12-15T21:52:03.677Z,17.20
2022-12-15T21:54:20.028Z,17.20
2022-12-15T21:56:26.952Z,17.20
2022-12-15T21:58:36.192Z,17.20
2022-12-15T22:00:45.690Z,17.10
2022-12-15T22:02:54.094Z,17.10
2022-12-15T22:05:01.617Z,17.10
2022-12-15T22:07:13.606Z,17.10
2022-12-15T22:09:22.222Z,17.00
2022-12-15T22:11:31.096Z,17.00
2022-12-15T22:13:39.810Z,16.90
2022-12-15T22:15:47.409Z,16.90
2022-12-15T22:17:54.378Z,16.90
2022-12-15T22:20:01.721Z,17.00
2022-12-15T22:22:08.700Z,17.00
2022-12-15T22:24:16.434Z,17.00
2022-12-15T22:26:26.073Z,17.00
2022-12-15T22:28:33.740Z,17.00
2022-12-15T22:30:42.612Z,17.00
2022-12-15T22:32:50.330Z,17.00
2022-12-15T22:34:57.717Z,17.00
2022-12-15T22:37:04.950Z,17.00
2022-12-15T22:39:12.187Z,17.00
2022-12-15T22:41:23.641Z,16.90
2022-12-15T22:43:37.145Z,16.80
2022-12-15T22:45:46.118Z,16.80
2022-12-15T22:47:55.390Z,16.80
2022-12-15T22:50:03.250Z,16.90
2022-12-15T22:52:19.038Z,17.00
2022-12-15T22:54:28.463Z,17.00
2022-12-15T22:56:40.355Z,17.00
2022-12-15T22:58:50.558Z,17.00
2022-12-15T23:01:03.119Z,17.00
2022-12-15T23:03:12.958Z,17.00
2022-12-15T23:05:22.600Z,17.00
2022-12-15T23:07:30.752Z,17.00
2022-12-15T23:09:37.678Z,17.00
2022-12-15T23:11:43.581Z,17.00
2022-12-15T23:13:50.504Z,17.00
2022-12-15T23:16:16.863Z,17.10
2022-12-15T23:18:23.811Z,17.00
2022-12-15T23:20:31.352Z,17.00
2022-12-15T23:22:38.276Z,17.00
2022-12-15T23:24:45.408Z,17.00
2022-12-15T23:26:52.332Z,16.90
2022-12-15T23:28:59.617Z,16.80
2022-12-15T23:31:09.342Z,16.80
2022-12-15T23:33:16.694Z,16.80
2022-12-15T23:35:23.674Z,16.80
2022-12-15T23:37:31.004Z,16.80
2022-12-15T23:39:37.880Z,16.60
2022-12-15T23:41:45.265Z,16.60
2022-12-15T23:43:52.810Z,16.50
2022-12-15T23:46:01.984Z,16.40
2022-12-15T23:48:11.162Z,16.40
2022-12-15T23:50:18.858Z,16.30
2022-12-15T23:52:25.886Z,16.40
2022-12-15T23:54:33.117Z,16.40
2022-12-15T23:56:42.039Z,16.40
2022-12-15T23:58:50.346Z,16.50
